Time;durP1;ratioP1;P1;durP2;ratioP2;P2;SDS_P1;SDS_P2;PMS_P1;PMS_P2;Temp;Humidity;BMP_temperature;BMP_pressure;BME280_temperature;BME280_humidity;BME280_pressure;Samples;Min_cycle;Max_cycle;Signal;HPM_P1;HPM_P2
2022/07/17 00:01:23;;;;;;;;;;;26.30;71.80;;;;;;5054809;28;20459;-60
2022/07/17 00:03:50;;;;;;;1.35;0.70;;;26.30;72.00;;;;;;5062357;28;20371;-60
2022/07/17 00:06:17;;;;;;;3.13;1.30;;;26.30;72.00;;;;;;5054447;28;20048;-59
2022/07/17 00:08:46;;;;;;;0.20;0.20;;;26.30;72.70;;;;;;5051610;28;20091;-60
2022/07/17 00:11:13;;;;;;;2.20;1.27;;;26.20;71.90;;;;;;5060862;28;20051;-60
2022/07/17 00:13:40;;;;;;;0.40;0.40;;;26.20;72.00;;;;;;5066666;28;20526;-60
2022/07/17 00:16:08;;;;;;;0.30;0.30;;;26.20;72.00;;;;;;5060033;28;20045;-60
2022/07/17 00:18:35;;;;;;;0.60;0.60;;;26.20;72.10;;;;;;5060734;28;20051;-58
2022/07/17 00:21:03;;;;;;;0.60;0.60;;;26.20;72.20;;;;;;5066656;28;20392;-60
2022/07/17 00:23:30;;;;;;;1.13;1.05;;;26.20;72.20;;;;;;5054600;28;20048;-59
2022/07/17 00:25:58;;;;;;;0.60;0.60;;;26.20;72.30;;;;;;5057059;28;20045;-59
2022/07/17 00:28:25;;;;;;;0.38;0.38;;;26.20;72.40;;;;;;5063794;28;20051;-59
2022/07/17 00:30:52;;;;;;;0.40;0.40;;;26.20;72.20;;;;;;5060191;28;20076;-61
2022/07/17 00:33:20;;;;;;;0.63;0.63;;;26.20;72.40;;;;;;5050631;28;20060;-56
2022/07/17 00:35:47;;;;;;;0.70;0.70;;;26.20;72.40;;;;;;5052176;28;20059;-58
2022/07/17 00:38:15;;;;;;;0.32;0.32;;;26.20;72.40;;;;;;5069022;28;20068;-58
2022/07/17 00:40:44;;;;;;;0.30;0.30;;;26.20;72.40;;;;;;5066692;28;20056;-55
2022/07/17 00:43:12;;;;;;;;;;;26.20;72.60;;;;;;5062886;28;20044;-59
2022/07/17 00:45:40;;;;;;;0.52;0.52;;;26.20;72.60;;;;;;5062832;28;19929;-59
2022/07/17 00:48:10;;;;;;;0.65;0.65;;;26.20;72.60;;;;;;5057048;28;20041;-59
2022/07/17 00:50:41;;;;;;;0.40;0.40;;;26.20;72.60;;;;;;5063482;28;20053;-59
2022/07/17 00:53:10;;;;;;;0.50;0.50;;;26.10;72.60;;;;;;5049276;28;20049;-59
2022/07/17 00:55:40;;;;;;;0.32;0.32;;;26.10;72.50;;;;;;5054364;28;20048;-57
2022/07/17 00:58:17;;;;;;;0.50;0.50;;;26.10;72.60;;;;;;5062872;28;20519;-57
2022/07/17 01:00:45;;;;;;;0.40;0.40;;;26.10;72.60;;;;;;5048181;28;20064;-60
2022/07/17 01:03:14;;;;;;;0.47;0.47;;;26.10;72.70;;;;;;5057716;28;20045;-56
2022/07/17 01:05:42;;;;;;;0.55;0.55;;;26.10;72.70;;;;;;5066215;28;20045;-59
2022/07/17 01:08:10;;;;;;;3.65;1.48;;;26.10;72.70;;;;;;5057008;28;20055;-58
2022/07/17 01:10:38;;;;;;;1.65;0.98;;;26.10;72.80;;;;;;5050100;28;20464;-57
2022/07/17 01:13:05;;;;;;;;;;;26.10;72.80;;;;;;5056922;28;20452;-59
2022/07/17 01:15:36;;;;;;;0.25;0.25;;;26.10;72.90;;;;;;5051947;28;19931;-59
2022/07/17 01:18:10;;;;;;;1.85;0.60;;;26.10;72.80;;;;;;5042803;28;20053;-60
2022/07/17 01:20:40;;;;;;;1.48;1.38;;;26.10;72.90;;;;;;5058381;28;20052;-57
2022/07/17 01:23:08;;;;;;;0.30;0.30;;;26.10;72.90;;;;;;5062729;28;20052;-59
2022/07/17 01:25:35;;;;;;;0.55;0.55;;;26.00;72.80;;;;;;5060947;28;20037;-58
2022/07/17 01:28:05;;;;;;;0.60;0.60;;;26.00;73.00;;;;;;5055565;28;20415;-57
2022/07/17 01:30:32;;;;;;;0.30;0.30;;;26.00;72.90;;;;;;5048831;28;20045;-59
2022/07/17 01:33:00;;;;;;;0.50;0.50;;;26.00;72.90;;;;;;5063621;28;20056;-59
2022/07/17 01:35:28;;;;;;;;;;;26.00;73.00;;;;;;5055666;28;20060;-60
2022/07/17 01:37:55;;;;;;;0.52;0.52;;;26.00;73.00;;;;;;5050887;28;19924;-60
2022/07/17 01:40:22;;;;;;;0.30;0.30;;;26.00;73.00;;;;;;5055683;28;20055;-61
2022/07/17 01:42:50;;;;;;;0.35;0.35;;;26.00;73.10;;;;;;5057184;28;20056;-61
2022/07/17 01:45:19;;;;;;;2.63;1.55;;;26.00;73.10;;;;;;5056280;28;20055;-60
2022/07/17 01:47:47;;;;;;;0.50;0.50;;;26.00;73.20;;;;;;5050075;28;20049;-59
2022/07/17 01:50:15;;;;;;;0.32;0.32;;;26.00;73.20;;;;;;5062349;28;20439;-59
2022/07/17 01:52:44;;;;;;;1.52;0.90;;;26.00;73.20;;;;;;5030471;28;20060;-60
2022/07/17 01:55:15;;;;;;;0.60;0.60;;;26.00;73.20;;;;;;5046383;28;20051;-59
2022/07/17 01:57:43;;;;;;;0.30;0.30;;;26.00;73.30;;;;;;5055676;28;20052;-60
2022/07/17 02:00:14;;;;;;;1.17;0.70;;;26.00;73.40;;;;;;5051336;28;20068;-58
2022/07/17 02:02:42;;;;;;;0.40;0.40;;;26.00;73.30;;;;;;5064085;28;20428;-58
2022/07/17 02:05:09;;;;;;;;;;;25.90;73.40;;;;;;5050424;28;20053;-59
2022/07/17 02:07:39;;;;;;;0.50;0.50;;;26.00;73.40;;;;;;5047761;28;19921;-61
2022/07/17 02:10:10;;;;;;;0.40;0.40;;;26.00;73.30;;;;;;5067552;28;20056;-61
2022/07/17 02:12:38;;;;;;;0.38;0.38;;;26.00;73.50;;;;;;5059698;28;20041;-58
2022/07/17 02:15:06;;;;;;;0.63;0.63;;;25.90;73.50;;;;;;5044922;28;20049;-60
2022/07/17 02:17:38;;;;;;;0.30;0.30;;;25.90;73.50;;;;;;5051768;28;20416;-58
2022/07/17 02:20:07;;;;;;;1.55;1.05;;;25.90;73.40;;;;;;5054148;28;20045;-61
2022/07/17 02:22:36;;;;;;;0.30;0.30;;;25.90;73.60;;;;;;5044552;28;20126;-60
2022/07/17 02:25:06;;;;;;;0.30;0.30;;;25.90;73.50;;;;;;5051731;28;20055;-60
2022/07/17 02:27:33;;;;;;;0.73;0.73;;;25.90;73.50;;;;;;5048762;28;20045;-61
2022/07/17 02:30:02;;;;;;;;;;;25.90;73.60;;;;;;5053100;28;20419;-60
2022/07/17 02:32:29;;;;;;;0.30;0.30;;;25.90;73.60;;;;;;5065205;28;20347;-61
2022/07/17 02:34:57;;;;;;;0.35;0.35;;;25.90;73.60;;;;;;5047660;28;20044;-61
2022/07/17 02:37:24;;;;;;;0.82;0.82;;;25.80;73.60;;;;;;5061500;28;20504;-59
2022/07/17 02:39:54;;;;;;;0.47;0.47;;;25.80;73.70;;;;;;5047705;28;20053;-59
2022/07/17 02:42:23;;;;;;;0.50;0.50;;;25.90;73.70;;;;;;5062735;28;20055;-59
2022/07/17 02:44:51;;;;;;;0.50;0.50;;;25.80;73.70;;;;;;5057729;28;20046;-60
2022/07/17 02:47:23;;;;;;;0.47;0.47;;;25.80;73.70;;;;;;5058923;28;20055;-55
2022/07/17 02:49:52;;;;;;;1.20;0.73;;;25.80;73.70;;;;;;5055129;28;20052;-59
2022/07/17 02:52:19;;;;;;;0.38;0.38;;;25.80;73.80;;;;;;5031052;28;20046;-58
2022/07/17 02:54:47;;;;;;;7.43;1.00;;;25.80;73.80;;;;;;5050360;28;20045;-59
2022/07/17 02:57:15;;;;;;;0.75;0.73;;;25.80;73.80;;;;;;5052917;28;20068;-58
2022/07/17 02:59:43;;;;;;;0.43;0.43;;;25.80;73.90;;;;;;5049709;28;20044;-57
2022/07/17 03:02:11;;;;;;;3.20;1.27;;;25.80;74.00;;;;;;5049292;28;20056;-59
2022/07/17 03:04:38;;;;;;;0.32;0.32;;;25.80;73.90;;;;;;5052404;28;20048;-58
2022/07/17 03:07:05;;;;;;;0.50;0.50;;;25.80;74.50;;;;;;5058988;28;20488;-61
2022/07/17 03:09:33;;;;;;;0.50;0.50;;;25.80;74.00;;;;;;5047852;28;20404;-61
2022/07/17 03:12:00;;;;;;;0.40;0.40;;;25.70;73.90;;;;;;5056682;28;20040;-59
2022/07/17 03:14:28;;;;;;;0.45;0.45;;;25.80;74.60;;;;;;5052505;28;20048;-61
2022/07/17 03:16:55;;;;;;;0.30;0.30;;;25.80;74.00;;;;;;5050555;28;20055;-59
2022/07/17 03:19:23;;;;;;;0.38;0.38;;;25.70;73.90;;;;;;5046993;28;20071;-61
2022/07/17 03:21:51;;;;;;;3.10;1.58;;;25.70;74.00;;;;;;5044457;28;20053;-60
2022/07/17 03:24:18;;;;;;;0.95;0.95;;;25.70;74.00;;;;;;5048747;28;20528;-59
2022/07/17 03:26:45;;;;;;;0.28;0.28;;;25.70;74.00;;;;;;5048482;28;20051;-60
2022/07/17 03:29:17;;;;;;;0.40;0.40;;;25.70;74.10;;;;;;5049458;28;20045;-59
2022/07/17 03:31:47;;;;;;;0.30;0.30;;;25.70;74.10;;;;;;5053571;28;20047;-59
2022/07/17 03:34:14;;;;;;;0.98;0.88;;;25.70;74.10;;;;;;5046148;28;20523;-61
2022/07/17 03:36:42;;;;;;;1.77;0.75;;;25.70;74.10;;;;;;5060198;28;20055;-61
2022/07/17 03:39:10;;;;;;;0.25;0.25;;;25.70;74.10;;;;;;5048442;28;20052;-60
2022/07/17 03:41:37;;;;;;;0.35;0.35;;;25.70;74.40;;;;;;5059566;28;20064;-59
2022/07/17 03:44:04;;;;;;;1.55;0.80;;;25.70;74.20;;;;;;5057053;28;20060;-61
2022/07/17 03:46:34;;;;;;;0.65;0.60;;;25.70;74.20;;;;;;5043148;28;20100;-61
2022/07/17 03:49:02;;;;;;;0.30;0.30;;;25.70;74.20;;;;;;5048988;28;20048;-59
2022/07/17 03:51:29;;;;;;;0.43;0.43;;;25.70;74.20;;;;;;5063685;28;20049;-61
2022/07/17 03:53:57;;;;;;;7.03;1.13;;;25.60;74.10;;;;;;5063124;28;20052;-60
2022/07/17 03:56:25;;;;;;;2.10;1.30;;;25.60;74.20;;;;;;5042218;28;20080;-59
2022/07/17 03:58:52;;;;;;;1.25;1.05;;;25.70;74.00;;;;;;5050880;28;20059;-60
2022/07/17 04:01:20;;;;;;;5.72;2.17;;;25.60;73.80;;;;;;5054531;28;20057;-57
2022/07/17 04:03:47;;;;;;;0.30;0.30;;;25.60;73.50;;;;;;5048009;28;20052;-59
2022/07/17 04:06:15;;;;;;;0.60;0.60;;;25.60;73.10;;;;;;5046630;28;20048;-57
2022/07/17 04:08:42;;;;;;;0.60;0.60;;;25.60;73.00;;;;;;5057380;28;20057;-61
2022/07/17 04:11:10;;;;;;;0.30;0.30;;;25.60;72.70;;;;;;5062102;28;20041;-60
2022/07/17 04:13:37;;;;;;;0.50;0.50;;;25.60;72.80;;;;;;5061160;28;20049;-58
2022/07/17 04:16:06;;;;;;;2.78;1.63;;;25.50;72.20;;;;;;5057966;28;20567;-56
2022/07/17 04:18:35;;;;;;;1.27;0.90;;;25.50;72.30;;;;;;5056547;28;20055;-57
2022/07/17 04:21:05;;;;;;;0.63;0.63;;;25.50;72.00;;;;;;5062948;28;20055;-56
2022/07/17 04:23:33;;;;;;;3.50;1.55;;;25.50;72.10;;;;;;5051906;28;20056;-55
2022/07/17 04:26:02;;;;;;;0.50;0.50;;;25.50;72.00;;;;;;5058999;28;20382;-59
2022/07/17 04:28:37;;;;;;;0.63;0.63;;;25.50;71.70;;;;;;5064465;28;20067;-60
2022/07/17 04:31:05;;;;;;;0.95;0.88;;;25.50;71.70;;;;;;5052661;28;20052;-56
2022/07/17 04:33:32;;;;;;;1.10;0.73;;;25.40;71.60;;;;;;5040769;28;20049;-61
2022/07/17 04:35:59;;;;;;;4.70;1.75;;;25.40;71.50;;;;;;5054882;28;20492;-61
2022/07/17 04:38:27;;;;;;;1.27;0.95;;;25.40;71.40;;;;;;5038223;28;20048;-60
2022/07/17 04:40:54;;;;;;;1.20;1.10;;;25.40;71.30;;;;;;5057831;28;20053;-59
2022/07/17 04:43:21;;;;;;;0.30;0.30;;;25.40;71.20;;;;;;5051669;28;20056;-60
2022/07/17 04:45:49;;;;;;;0.63;0.60;;;25.40;71.20;;;;;;5049196;28;20052;-58
2022/07/17 04:48:16;;;;;;;0.32;0.32;;;25.40;71.20;;;;;;5050104;28;20052;-57
2022/07/17 04:50:43;;;;;;;2.65;1.48;;;25.40;71.20;;;;;;5061984;28;20045;-59
2022/07/17 04:53:11;;;;;;;0.32;0.32;;;25.40;70.90;;;;;;5060700;28;20547;-59
2022/07/17 04:55:38;;;;;;;2.65;1.13;;;25.40;71.00;;;;;;5061495;28;20052;-60
2022/07/17 04:58:06;;;;;;;0.80;0.80;;;25.50;71.00;;;;;;5074282;28;20796;-59
2022/07/17 05:00:36;;;;;;;0.55;0.55;;;25.50;70.80;;;;;;5066330;28;20361;-59
2022/07/17 05:03:03;;;;;;;0.30;0.30;;;25.60;71.10;;;;;;5067792;28;20075;-60
2022/07/17 05:05:30;;;;;;;0.70;0.70;;;25.60;71.10;;;;;;5064381;28;20056;-60
2022/07/17 05:07:57;;;;;;;1.45;1.00;;;25.60;71.20;;;;;;5048964;28;20479;-61
2022/07/17 05:10:25;;;;;;;1.45;0.90;;;25.60;71.10;;;;;;5059925;28;20055;-61
2022/07/17 05:12:54;;;;;;;0.40;0.40;;;25.50;71.10;;;;;;5065753;28;20059;-60
2022/07/17 05:15:22;;;;;;;0.30;0.30;;;25.50;71.00;;;;;;5064878;28;20049;-61
2022/07/17 05:17:49;;;;;;;0.20;0.20;;;25.50;71.00;;;;;;5064889;28;20049;-58
2022/07/17 05:20:17;;;;;;;0.98;0.55;;;25.50;70.70;;;;;;5049857;28;20048;-60
2022/07/17 05:22:44;;;;;;;0.57;0.57;;;25.50;70.50;;;;;;5066198;28;20048;-60
2022/07/17 05:25:12;;;;;;;2.25;1.20;;;25.50;70.40;;;;;;5052581;28;20052;-61
2022/07/17 05:27:39;;;;;;;0.50;0.50;;;25.50;70.30;;;;;;5055507;28;20040;-61
2022/07/17 05:30:07;;;;;;;0.30;0.30;;;25.50;70.00;;;;;;5059775;28;20040;-57
2022/07/17 05:32:34;;;;;;;0.30;0.30;;;25.50;69.60;;;;;;5049341;28;20056;-59
2022/07/17 05:35:02;;;;;;;0.77;0.77;;;25.50;69.50;;;;;;5051480;28;20051;-59
2022/07/17 05:37:29;;;;;;;0.50;0.50;;;25.50;69.40;;;;;;5061367;28;20052;-61
2022/07/17 05:39:57;;;;;;;0.35;0.35;;;25.50;69.30;;;;;;5064058;28;20037;-58
2022/07/17 05:42:24;;;;;;;0.55;0.55;;;25.40;69.40;;;;;;5066706;28;20068;-58
2022/07/17 05:44:51;;;;;;;0.50;0.50;;;25.40;69.20;;;;;;5063753;28;20044;-61
2022/07/17 05:47:19;;;;;;;4.28;1.60;;;25.40;69.20;;;;;;5060875;28;20041;-57
2022/07/17 05:49:46;;;;;;;1.70;0.82;;;25.40;69.10;;;;;;5061052;28;20048;-59
2022/07/17 05:52:13;;;;;;;0.65;0.65;;;25.40;68.90;;;;;;5063288;28;20094;-57
2022/07/17 05:54:41;;;;;;;3.20;1.25;;;25.30;69.10;;;;;;5061832;28;20048;-61
2022/07/17 05:57:08;;;;;;;0.50;0.50;;;25.30;68.80;;;;;;5058011;28;20053;-56
2022/07/17 05:59:37;;;;;;;0.63;0.63;;;25.30;68.60;;;;;;5056381;28;20087;-58
2022/07/17 06:02:04;;;;;;;0.32;0.32;;;25.30;68.80;;;;;;5046370;28;20076;-58
2022/07/17 06:04:32;;;;;;;1.08;0.52;;;25.40;69.10;;;;;;5063749;28;20045;-59
2022/07/17 06:06:59;;;;;;;0.30;0.30;;;25.40;69.00;;;;;;5065400;28;20055;-62
2022/07/17 06:09:27;;;;;;;1.25;0.98;;;25.40;68.80;;;;;;5032383;28;20052;-63
2022/07/17 06:11:54;;;;;;;;;;;25.40;68.70;;;;;;5068466;28;20037;-60
2022/07/17 06:14:24;;;;;;;0.47;0.45;;;25.40;69.00;;;;;;5062156;28;19928;-60
2022/07/17 06:16:52;;;;;;;0.30;0.30;;;25.40;69.00;;;;;;5063460;28;20348;-57
2022/07/17 06:19:19;;;;;;;0.30;0.30;;;25.50;69.00;;;;;;5066047;28;20051;-61
2022/07/17 06:21:46;;;;;;;0.28;0.28;;;25.50;68.90;;;;;;5057914;28;20055;-60
2022/07/17 06:24:14;;;;;;;0.50;0.50;;;25.40;69.30;;;;;;5066512;28;20056;-61
2022/07/17 06:26:41;;;;;;;0.30;0.30;;;25.50;68.90;;;;;;5060654;28;20512;-60
2022/07/17 06:29:08;;;;;;;0.38;0.38;;;25.50;69.40;;;;;;5048940;28;20052;-62
2022/07/17 06:31:36;;;;;;;0.30;0.30;;;25.50;69.60;;;;;;5066111;28;20040;-62
2022/07/17 06:34:03;;;;;;;0.40;0.40;;;25.50;69.70;;;;;;5055949;28;20041;-61
2022/07/17 06:36:31;;;;;;;0.52;0.52;;;25.50;69.90;;;;;;5054889;28;20044;-61
2022/07/17 06:39:01;;;;;;;0.20;0.20;;;25.50;69.90;;;;;;5056813;28;20053;-61
2022/07/17 06:41:29;;;;;;;1.67;1.10;;;25.50;70.10;;;;;;5057697;28;20247;-60
2022/07/17 06:43:56;;;;;;;0.43;0.40;;;25.50;70.40;;;;;;5060966;28;20534;-61
2022/07/17 06:46:24;;;;;;;0.52;0.52;;;25.50;70.50;;;;;;5066692;28;20052;-61
2022/07/17 06:48:51;;;;;;;0.47;0.47;;;25.50;70.90;;;;;;5066199;28;20535;-60
2022/07/17 06:51:19;;;;;;;0.57;0.57;;;25.60;71.20;;;;;;5068424;28;20040;-57
2022/07/17 06:53:46;;;;;;;1.90;1.05;;;25.60;71.30;;;;;;5063009;28;20036;-54
2022/07/17 06:56:13;;;;;;;0.40;0.40;;;25.60;71.70;;;;;;5068294;28;20049;-50
2022/07/17 06:58:41;;;;;;;0.30;0.30;;;25.60;73.30;;;;;;5047551;28;20063;-56
2022/07/17 07:01:08;;;;;;;0.47;0.47;;;25.60;73.60;;;;;;5045429;28;20048;-61
2022/07/17 07:03:36;;;;;;;1.75;1.00;;;25.60;73.30;;;;;;5065391;28;20051;-60
2022/07/17 07:06:03;;;;;;;0.57;0.57;;;25.60;74.10;;;;;;5061780;28;20052;-56
2022/07/17 07:08:32;;;;;;;0.38;0.38;;;25.60;74.00;;;;;;5074815;28;20139;-58
2022/07/17 07:11:01;;;;;;;1.20;1.10;;;25.60;75.00;;;;;;5059398;28;20036;-57
2022/07/17 07:13:28;;;;;;;0.73;0.73;;;25.60;76.20;;;;;;5049994;28;20071;-59
2022/07/17 07:15:56;;;;;;;0.30;0.30;;;25.70;75.60;;;;;;5072347;28;20504;-58
2022/07/17 07:18:23;;;;;;;0.40;0.40;;;25.70;77.10;;;;;;5063623;28;20044;-59
2022/07/17 07:20:51;;;;;;;0.32;0.32;;;25.70;76.90;;;;;;5061076;28;20055;-56
2022/07/17 07:23:21;;;;;;;0.32;0.32;;;25.70;77.40;;;;;;5060675;28;20059;-59
2022/07/17 07:25:49;;;;;;;1.45;0.77;;;25.70;77.90;;;;;;5045309;28;20055;-56
2022/07/17 07:28:16;;;;;;;0.68;0.68;;;25.70;76.80;;;;;;5071673;28;20044;-59
2022/07/17 07:30:43;;;;;;;0.45;0.45;;;25.70;76.40;;;;;;5058499;28;20147;-54
2022/07/17 07:33:15;;;;;;;1.02;0.82;;;25.70;76.00;;;;;;5045818;28;20436;-56
2022/07/17 07:35:43;;;;;;;0.80;0.80;;;25.70;75.70;;;;;;5050810;28;20381;-57
2022/07/17 07:38:13;;;;;;;0.40;0.40;;;25.70;75.80;;;;;;5065709;28;20067;-57
2022/07/17 07:40:40;;;;;;;0.22;0.22;;;25.70;75.80;;;;;;5063195;28;20052;-55
2022/07/17 07:43:09;;;;;;;0.30;0.30;;;25.70;75.70;;;;;;5065836;28;20044;-53
2022/07/17 07:45:37;;;;;;;0.20;0.20;;;25.70;75.80;;;;;;5061001;28;20075;-57
2022/07/17 07:48:05;;;;;;;1.90;1.05;;;25.70;75.80;;;;;;5044336;28;20053;-51
2022/07/17 07:50:32;;;;;;;0.28;0.28;;;25.70;75.80;;;;;;5062886;28;20040;-55
2022/07/17 07:52:59;;;;;;;6.28;3.55;;;25.70;75.70;;;;;;5060897;28;20059;-56
2022/07/17 07:55:27;;;;;;;1.00;0.88;;;25.70;75.70;;;;;;5060670;28;20063;-54
2022/07/17 07:58:10;;;;;;;0.50;0.50;;;25.70;75.90;;;;;;5059832;28;20048;-55
2022/07/17 08:00:39;;;;;;;0.57;0.57;;;25.70;76.20;;;;;;5057052;28;20052;-56
2022/07/17 08:03:07;;;;;;;0.30;0.30;;;25.70;76.60;;;;;;5061764;28;20096;-52
2022/07/17 08:05:35;;;;;;;0.40;0.40;;;25.80;77.30;;;;;;5059284;28;20147;-53
2022/07/17 08:08:03;;;;;;;0.82;0.82;;;25.80;77.10;;;;;;5053056;28;20056;-56
2022/07/17 08:10:34;;;;;;;0.50;0.50;;;25.80;77.40;;;;;;5032454;28;20512;-55
2022/07/17 08:13:02;;;;;;;0.38;0.38;;;25.80;77.60;;;;;;5055035;28;20045;-53
2022/07/17 08:15:29;;;;;;;0.30;0.30;;;25.80;77.70;;;;;;5061536;28;20037;-57
2022/07/17 08:17:59;;;;;;;0.30;0.30;;;25.80;77.70;;;;;;5046565;28;20049;-59
2022/07/17 08:20:27;;;;;;;1.20;0.70;;;25.80;78.70;;;;;;5065102;28;20044;-58
2022/07/17 08:22:54;;;;;;;0.22;0.22;;;25.90;79.10;;;;;;5044154;28;20052;-58
2022/07/17 08:25:33;;;;;;;0.30;0.30;;;26.00;79.30;;;;;;5074101;28;20045;-61
2022/07/17 08:28:03;;;;;;;0.45;0.45;;;26.00;80.00;;;;;;5067317;28;20523;-62
2022/07/17 08:30:34;;;;;;;0.57;0.57;;;26.00;80.20;;;;;;5065670;28;20060;-58
2022/07/17 08:33:06;;;;;;;0.50;0.50;;;26.00;80.40;;;;;;5068341;28;20044;-59
2022/07/17 08:35:35;;;;;;;0.30;0.30;;;26.00;80.50;;;;;;5069334;28;20056;-55
2022/07/17 08:38:03;;;;;;;1.10;0.95;;;26.00;80.30;;;;;;5067665;28;20040;-59
2022/07/17 08:40:34;;;;;;;0.38;0.38;;;26.00;80.60;;;;;;5046465;28;20068;-58
2022/07/17 08:43:04;;;;;;;1.13;0.85;;;26.00;80.10;;;;;;5074857;28;20076;-56
2022/07/17 08:45:31;;;;;;;0.90;0.80;;;25.90;79.80;;;;;;5076413;28;20048;-57
2022/07/17 08:48:00;;;;;;;0.40;0.40;;;25.90;79.80;;;;;;5049482;28;20053;-54
2022/07/17 08:50:32;;;;;;;1.95;1.17;;;25.90;79.50;;;;;;5063754;28;20068;-57
2022/07/17 08:53:00;;;;;;;0.25;0.25;;;25.90;79.30;;;;;;5061570;28;20040;-51
2022/07/17 08:55:31;;;;;;;0.88;0.65;;;26.00;79.30;;;;;;5066203;28;20048;-55
2022/07/17 08:57:58;;;;;;;0.30;0.30;;;26.00;80.20;;;;;;5057181;28;20045;-58
2022/07/17 09:00:27;;;;;;;0.47;0.47;;;26.00;80.30;;;;;;5067868;28;20048;-59
2022/07/17 09:03:02;;;;;;;0.40;0.40;;;26.00;80.10;;;;;;5050983;28;20061;-56
2022/07/17 09:05:33;;;;;;;0.30;0.30;;;26.00;80.00;;;;;;5064267;28;20048;-61
2022/07/17 09:08:03;;;;;;;19.55;2.58;;;26.00;80.10;;;;;;5051651;28;20048;-57
2022/07/17 09:10:42;;;;;;;2.08;1.38;;;26.00;80.50;;;;;;5055581;28;20063;-62
2022/07/17 09:13:25;;;;;;;0.30;0.30;;;26.00;80.70;;;;;;5047258;28;20048;-59
2022/07/17 09:15:57;;;;;;;0.28;0.28;;;26.00;80.40;;;;;;5057547;28;20056;-57
2022/07/17 09:18:25;;;;;;;0.50;0.50;;;26.00;80.20;;;;;;5063050;28;20053;-58
2022/07/17 09:20:55;;;;;;;5.68;2.47;;;26.00;80.70;;;;;;5047634;28;20048;-59
2022/07/17 09:23:25;;;;;;;0.60;0.60;;;26.00;80.60;;;;;;5063656;28;20087;-60
2022/07/17 09:25:54;;;;;;;0.30;0.30;;;26.00;80.90;;;;;;5064281;28;20071;-57
2022/07/17 09:28:23;;;;;;;2.20;0.82;;;26.00;81.60;;;;;;5060090;28;20040;-59
2022/07/17 09:30:53;;;;;;;2.10;1.38;;;26.00;82.10;;;;;;5071035;28;20044;-59
2022/07/17 09:33:26;;;;;;;0.82;0.82;;;26.00;83.40;;;;;;5071603;28;20460;-57
2022/07/17 09:36:10;;;;;;;13.55;5.45;;;26.00;85.50;;;;;;5062901;28;20338;-59
2022/07/17 09:38:40;;;;;;;8.65;3.70;;;26.00;86.60;;;;;;5026041;28;20052;-58
2022/07/17 09:41:09;;;;;;;5.55;3.35;;;26.00;88.20;;;;;;5065913;28;20075;-58
2022/07/17 09:43:45;;;;;;;3.47;2.63;;;26.00;89.80;;;;;;5069032;28;20495;-57
2022/07/17 09:46:16;;;;;;;19.20;5.45;;;26.10;90.60;;;;;;5068035;28;20059;-59
2022/07/17 09:48:49;;;;;;;12.80;6.78;;;26.20;91.30;;;;;;5066581;28;20040;-55
2022/07/17 09:51:19;;;;;;;13.98;6.93;;;26.10;91.60;;;;;;5067651;28;20080;-58
2022/07/17 09:53:50;;;;;;;14.93;8.63;;;26.10;92.50;;;;;;5061813;28;20048;-60
2022/07/17 09:56:20;;;;;;;13.55;7.47;;;26.20;92.90;;;;;;5064592;28;20045;-60
2022/07/17 09:58:53;;;;;;;7.93;4.50;;;26.20;93.20;;;;;;5067596;28;20037;-60
2022/07/17 10:01:21;;;;;;;9.73;5.10;;;26.10;93.40;;;;;;5062074;28;20496;-57
2022/07/17 10:03:51;;;;;;;6.95;3.95;;;26.20;94.90;;;;;;5061349;28;20040;-57
2022/07/17 10:06:21;;;;;;;6.35;4.18;;;26.20;95.40;;;;;;5047746;28;20048;-54
2022/07/17 10:08:51;;;;;;;16.52;6.85;;;26.10;95.30;;;;;;5062890;28;20064;-58
2022/07/17 10:11:21;;;;;;;7.68;4.80;;;26.20;95.20;;;;;;5067204;28;20041;-56
2022/07/17 10:13:52;;;;;;;5.15;3.42;;;26.20;95.10;;;;;;5063350;28;20044;-58
2022/07/17 10:16:32;;;;;;;6.78;4.05;;;26.20;95.60;;;;;;5067917;28;20059;-58
2022/07/17 10:19:02;;;;;;;4.00;2.72;;;26.30;95.80;;;;;;5059259;28;20052;-57
2022/07/17 10:21:31;;;;;;;6.88;3.85;;;26.30;95.40;;;;;;5068005;28;20051;-56
2022/07/17 10:23:59;;;;;;;7.00;4.25;;;26.20;95.20;;;;;;5056139;28;21592;-54
2022/07/17 10:26:36;;;;;;;7.50;3.47;;;26.20;95.00;;;;;;5048186;28;20056;-59
2022/07/17 10:29:28;;;;;;;5.43;2.88;;;26.20;94.90;;;;;;5069511;28;20040;-60
2022/07/17 10:31:57;;;;;;;3.78;2.50;;;26.20;94.80;;;;;;5053231;28;20557;-57
2022/07/17 10:34:59;;;;;;;19.80;5.15;;;26.20;94.90;;;;;;5063152;28;20044;-59
2022/07/17 10:37:34;;;;;;;5.32;2.55;;;26.30;95.30;;;;;;5063091;28;20049;-60
2022/07/17 10:40:28;;;;;;;6.43;3.83;;;26.30;96.00;;;;;;5062071;28;20048;-58
2022/07/17 10:42:58;;;;;;;6.00;2.42;;;26.30;95.40;;;;;;5059763;28;20057;-60
2022/07/17 10:45:34;;;;;;;6.53;3.45;;;26.30;96.20;;;;;;5041283;28;20052;-60
2022/07/17 10:48:06;;;;;;;4.18;2.25;;;26.30;96.10;;;;;;5059492;28;20040;-59
2022/07/17 10:50:45;;;;;;;1.42;1.08;;;26.40;96.20;;;;;;5062983;28;20041;-56
2022/07/17 10:53:24;;;;;;;3.85;2.20;;;26.40;96.40;;;;;;5061076;28;20041;-58
2022/07/17 10:55:57;;;;;;;2.75;1.98;;;26.30;96.00;;;;;;5060768;28;20044;-58
2022/07/17 10:58:32;;;;;;;1.98;1.88;;;26.30;96.40;;;;;;5061528;28;20052;-57
2022/07/17 11:01:04;;;;;;;3.75;2.50;;;26.30;96.40;;;;;;5063475;28;20044;-57
2022/07/17 11:03:45;;;;;;;3.53;1.77;;;26.30;96.20;;;;;;5042673;28;20051;-60
2022/07/17 11:06:23;;;;;;;1.25;1.15;;;26.40;96.20;;;;;;5060569;28;20055;-55
2022/07/17 11:09:18;;;;;;;1.70;1.60;;;26.30;95.80;;;;;;5068334;28;20124;-56
2022/07/17 11:11:50;;;;;;;2.22;2.00;;;26.30;95.00;;;;;;5045376;28;20420;-58
2022/07/17 11:14:19;;;;;;;0.93;0.88;;;26.30;94.30;;;;;;5062901;28;20374;-58
2022/07/17 11:17:07;;;;;;;3.45;1.50;;;26.30;94.00;;;;;;5043827;28;20059;-58
2022/07/17 11:19:42;;;;;;;12.85;2.08;;;26.20;93.60;;;;;;5063189;28;20051;-56
2022/07/17 11:22:11;;;;;;;2.60;1.83;;;26.30;93.20;;;;;;5060195;28;20055;-61
2022/07/17 11:24:48;;;;;;;1.70;1.58;;;26.30;93.00;;;;;;5057247;28;20044;-59
2022/07/17 11:27:26;;;;;;;2.97;1.38;;;26.30;92.80;;;;;;5062030;28;20040;-61
2022/07/17 11:29:55;;;;;;;13.40;2.33;;;26.30;92.60;;;;;;5042918;28;20044;-58
2022/07/17 11:32:22;;;;;;;0.65;0.65;;;26.30;92.50;;;;;;5062709;28;20044;-57
2022/07/17 11:34:50;;;;;;;;;;;26.30;92.10;;;;;;5052640;28;20041;-53
2022/07/17 11:37:17;;;;;;;14.27;3.97;;;26.30;92.10;;;;;;5065737;28;19929;-58
2022/07/17 11:39:47;;;;;;;7.55;1.58;;;26.30;92.20;;;;;;5068280;28;20431;-58
2022/07/17 11:42:17;;;;;;;3.70;1.33;;;26.30;92.10;;;;;;5074828;28;20060;-60
2022/07/17 11:44:46;;;;;;;1.90;1.45;;;26.30;92.00;;;;;;5058310;28;20666;-55
2022/07/17 11:47:20;;;;;;;5.40;2.50;;;26.30;91.80;;;;;;5062859;28;20036;-58
2022/07/17 11:49:48;;;;;;;3.50;2.03;;;26.20;91.20;;;;;;5045479;28;20528;-59
2022/07/17 11:52:21;;;;;;;2.28;1.80;;;26.20;90.10;;;;;;5054819;28;20041;-59
2022/07/17 11:54:55;;;;;;;10.35;2.28;;;26.20;89.50;;;;;;5047031;28;20053;-59
2022/07/17 11:57:27;;;;;;;1.33;1.02;;;26.20;89.20;;;;;;5048249;28;20132;-58
2022/07/17 12:00:05;;;;;;;2.33;1.35;;;26.30;89.10;;;;;;5051038;28;20457;-55
2022/07/17 12:02:34;;;;;;;1.83;1.13;;;26.30;88.80;;;;;;5068011;28;20060;-59
2022/07/17 12:05:01;;;;;;;1.25;1.08;;;26.20;88.50;;;;;;5066871;28;20055;-57
2022/07/17 12:07:41;;;;;;;4.38;1.80;;;26.30;88.40;;;;;;5057522;28;20048;-59
2022/07/17 12:10:14;;;;;;;1.45;1.35;;;26.30;88.40;;;;;;5054177;28;20067;-56
2022/07/17 12:12:58;;;;;;;2.25;1.00;;;26.20;88.20;;;;;;5060487;28;20516;-55
2022/07/17 12:15:40;;;;;;;3.25;2.13;;;26.20;88.10;;;;;;5060643;28;20036;-57
2022/07/17 12:18:26;;;;;;;6.20;3.25;;;26.20;88.10;;;;;;5064676;28;20056;-58
2022/07/17 12:21:01;;;;;;;4.93;2.30;;;26.30;88.10;;;;;;5053608;28;20053;-56
2022/07/17 12:23:37;;;;;;;0.88;0.82;;;26.20;87.90;;;;;;5049966;28;20068;-56
2022/07/17 12:26:10;;;;;;;3.00;1.30;;;26.20;87.80;;;;;;5053905;28;20136;-59
2022/07/17 12:28:39;;;;;;;0.57;0.57;;;26.30;87.80;;;;;;5057037;28;20500;-57
2022/07/17 12:31:11;;;;;;;1.98;1.45;;;26.30;87.70;;;;;;5058352;28;20047;-58
2022/07/17 12:33:39;;;;;;;1.27;1.17;;;26.20;87.60;;;;;;5049958;28;20412;-58
2022/07/17 12:36:07;;;;;;;2.92;1.75;;;26.30;87.60;;;;;;5058797;28;20040;-56
2022/07/17 12:38:35;;;;;;;6.25;3.00;;;26.20;87.40;;;;;;5049906;28;20053;-59
2022/07/17 12:41:02;;;;;;;0.80;0.80;;;26.30;87.50;;;;;;5054374;28;20044;-59
2022/07/17 12:43:30;;;;;;;1.42;1.27;;;26.30;87.40;;;;;;5062914;28;20048;-57
2022/07/17 12:45:57;;;;;;;2.17;1.30;;;26.30;87.40;;;;;;5055099;28;20052;-56
2022/07/17 12:48:36;;;;;;;1.77;1.35;;;26.30;87.30;;;;;;5049249;28;20437;-56
2022/07/17 12:51:03;;;;;;;2.90;1.27;;;26.30;87.20;;;;;;5057978;28;20044;-57
2022/07/17 12:53:30;;;;;;;;;;;26.30;87.10;;;;;;5049920;28;20049;-57
2022/07/17 12:55:58;;;;;;;2.55;1.58;;;26.30;87.00;;;;;;5051780;28;19955;-57
2022/07/17 12:58:25;;;;;;;1.77;1.33;;;26.30;87.00;;;;;;5055327;28;20579;-60
2022/07/17 13:00:52;;;;;;;3.10;1.88;;;26.30;86.90;;;;;;5050726;28;20064;-54